Time;durP1;ratioP1;P1;durP2;ratioP2;P2;SDS_P1;SDS_P2;PMS_P1;PMS_P2;Temp;Humidity;BMP_temperature;BMP_pressure;BME280_temperature;BME280_humidity;BME280_pressure;Samples;Min_cycle;Max_cycle;Signal;HPM_P1;HPM_P2
2023/04/30 00:01:03;;;;;;;11.57;9.20;;;;;;;;;;5032440;28;20634;-76
2023/04/30 00:03:29;;;;;;;9.77;8.73;;;;;;;;;;5019864;28;20183;-76
2023/04/30 00:05:56;;;;;;;12.17;10.63;;;;;;;;;;5026760;28;20236;-76
2023/04/30 00:08:22;;;;;;;11.57;10.37;;;;;;;;;;5031993;28;21425;-76
2023/04/30 00:10:48;;;;;;;10.73;9.57;;;;;;;;;;5021238;28;20721;-76
2023/04/30 00:13:14;;;;;;;13.23;10.87;;;;;;;;;;5021273;28;20228;-76
2023/04/30 00:15:40;;;;;;;14.57;11.10;;;;;;;;;;5031481;28;20191;-75
2023/04/30 00:18:06;;;;;;;10.87;9.77;;;;;;;;;;5031894;28;20187;-76
2023/04/30 00:20:34;;;;;;;11.53;9.87;;;;;;;;;;5027259;28;20179;-75
2023/04/30 00:23:00;;;;;;;11.77;9.70;;;;;;;;;;5030038;28;20297;-76
2023/04/30 00:25:26;;;;;;;11.33;9.10;;;;;;;;;;5031501;28;20178;-76
2023/04/30 00:27:52;;;;;;;13.07;11.20;;;;;;;;;;5032279;28;20179;-76
2023/04/30 00:30:18;;;;;;;14.23;9.80;;;;;;;;;;5030128;28;20182;-76
2023/04/30 00:32:45;;;;;;;11.80;9.70;;;;;;;;;;5021509;28;20238;-76
2023/04/30 00:35:11;;;;;;;12.27;10.03;;;;;;;;;;5011058;28;20783;-76
2023/04/30 00:37:37;;;;;;;11.00;9.13;;;;;;;;;;5022599;28;20674;-76
2023/04/30 00:40:04;;;;;;;12.53;11.23;;;;;;;;;;5030388;28;20198;-75
2023/04/30 00:42:30;;;;;;;16.00;14.30;;;;;;;;;;5030507;28;20269;-75
2023/04/30 00:44:57;;;;;;;11.47;10.00;;;;;;;;;;5031429;28;20171;-75
2023/04/30 00:47:23;;;;;;;11.13;9.50;;;;;;;;;;5028352;28;20198;-75
2023/04/30 00:49:50;;;;;;;9.00;8.10;;;;;;;;;;5030541;28;20248;-75
2023/04/30 00:52:16;;;;;;;10.77;9.00;;;;;;;;;;5031026;28;20229;-75
2023/04/30 00:54:42;;;;;;;10.93;9.70;;;;;;;;;;5019044;28;20202;-75
2023/04/30 00:57:12;;;;;;;10.97;9.57;;;;;;;;;;5016963;28;20240;-75
2023/04/30 00:59:38;;;;;;;11.93;10.10;;;;;;;;;;5029649;28;20628;-74
2023/04/30 01:02:05;;;;;;;13.80;11.63;;;;;;;;;;5022717;28;20175;-74
2023/04/30 01:04:32;;;;;;;13.53;10.90;;;;;;;;;;5021266;28;20175;-75
2023/04/30 01:07:01;;;;;;;12.70;11.33;;;;;;;;;;5011425;28;20214;-75
2023/04/30 01:09:27;;;;;;;11.30;9.47;;;;;;;;;;5011994;28;20232;-75
2023/04/30 01:12:08;;;;;;;11.93;10.73;;;;;;;;;;5029248;28;20178;-74
2023/04/30 01:14:53;;;;;;;10.20;9.10;;;;;;;;;;5019779;28;20590;-75
2023/04/30 01:17:34;;;;;;;10.67;9.57;;;;;;;;;;5021755;28;20202;-75
2023/04/30 01:20:01;;;;;;;11.07;9.30;;;;;;;;;;5029412;28;20297;-75
2023/04/30 01:22:27;;;;;;;10.50;9.40;;;;;;;;;;5025998;28;20181;-75
2023/04/30 01:24:54;;;;;;;12.27;9.50;;;;;;;;;;5020172;28;20201;-75
2023/04/30 01:27:39;;;;;;;11.87;10.10;;;;;;;;;;5025910;28;20248;-75
2023/04/30 01:30:06;;;;;;;19.80;17.23;;;;;;;;;;5029563;28;20604;-74
2023/04/30 01:32:32;;;;;;;14.53;12.07;;;;;;;;;;5028576;28;20213;-75
2023/04/30 01:34:58;;;;;;;11.53;9.27;;;;;;;;;;5021289;28;20277;-75
2023/04/30 01:37:31;;;;;;;10.20;9.10;;;;;;;;;;4999158;28;20217;-75
2023/04/30 01:39:57;;;;;;;12.63;9.63;;;;;;;;;;5009680;28;20242;-75
2023/04/30 01:42:38;;;;;;;13.03;9.20;;;;;;;;;;5014017;28;20237;-75
2023/04/30 01:45:23;;;;;;;11.13;10.13;;;;;;;;;;5028817;28;20397;-75
2023/04/30 01:47:49;;;;;;;10.67;9.57;;;;;;;;;;5030907;28;20657;-75
2023/04/30 01:50:26;;;;;;;10.60;9.60;;;;;;;;;;5029501;28;20712;-75
2023/04/30 01:52:58;;;;;;;11.17;9.97;;;;;;;;;;5020002;28;20196;-75
2023/04/30 01:55:27;;;;;;;11.53;10.33;;;;;;;;;;5029909;28;20201;-75
2023/04/30 01:57:57;;;;;;;13.60;11.43;;;;;;;;;;5036151;28;20265;-75
2023/04/30 02:00:25;;;;;;;14.40;11.93;;;;;;;;;;5034907;28;20206;-75
2023/04/30 02:02:51;;;;;;;12.13;10.93;;;;;;;;;;5029260;28;20607;-75
2023/04/30 02:05:17;;;;;;;12.33;10.30;;;;;;;;;;5029413;28;20175;-75
2023/04/30 02:07:44;;;;;;;11.73;10.50;;;;;;;;;;5014846;28;20577;-75
2023/04/30 02:10:11;;;;;;;12.67;10.77;;;;;;;;;;5021803;28;20197;-75
2023/04/30 02:12:37;;;;;;;12.23;10.97;;;;;;;;;;5008958;28;20603;-75
2023/04/30 02:15:04;;;;;;;12.73;10.50;;;;;;;;;;5011453;28;20187;-75
2023/04/30 02:17:31;;;;;;;12.57;11.27;;;;;;;;;;5027132;28;20615;-75
2023/04/30 02:19:57;;;;;;;15.63;14.03;;;;;;;;;;5027640;28;20210;-75
2023/04/30 02:22:23;;;;;;;11.53;10.40;;;;;;;;;;5034116;28;20518;-75
2023/04/30 02:24:50;;;;;;;12.70;10.30;;;;;;;;;;5031244;28;20219;-75
2023/04/30 02:27:16;;;;;;;12.07;10.67;;;;;;;;;;5032900;28;20252;-75
2023/04/30 02:29:42;;;;;;;10.43;9.40;;;;;;;;;;5016413;28;20204;-74
2023/04/30 02:32:08;;;;;;;12.00;10.47;;;;;;;;;;5028514;28;20183;-75
2023/04/30 02:34:34;;;;;;;11.93;10.63;;;;;;;;;;5027701;28;20274;-75
2023/04/30 02:37:02;;;;;;;11.70;10.50;;;;;;;;;;5019640;28;20224;-74
2023/04/30 02:39:29;;;;;;;13.07;11.73;;;;;;;;;;5033504;28;20202;-75
2023/04/30 02:41:55;;;;;;;12.17;10.90;;;;;;;;;;5032606;28;20183;-75
2023/04/30 02:44:21;;;;;;;13.27;11.90;;;;;;;;;;5030618;28;20179;-75
2023/04/30 02:46:47;;;;;;;13.37;11.97;;;;;;;;;;5032435;28;20202;-74
2023/04/30 02:49:13;;;;;;;13.30;11.90;;;;;;;;;;5033232;28;20385;-75
2023/04/30 02:51:39;;;;;;;13.87;11.47;;;;;;;;;;5016359;28;20193;-75
2023/04/30 02:54:05;;;;;;;14.17;12.70;;;;;;;;;;5028087;28;20195;-75
2023/04/30 02:56:32;;;;;;;14.53;12.33;;;;;;;;;;5027858;28;20202;-75
2023/04/30 02:58:58;;;;;;;13.30;11.57;;;;;;;;;;5032490;28;20206;-75
2023/04/30 03:01:24;;;;;;;14.17;11.10;;;;;;;;;;5032298;28;20189;-75
2023/04/30 03:03:50;;;;;;;13.40;11.37;;;;;;;;;;5032103;28;20610;-74
2023/04/30 03:06:16;;;;;;;12.13;10.57;;;;;;;;;;5028699;28;20195;-74
2023/04/30 03:08:42;;;;;;;12.80;11.33;;;;;;;;;;5022172;28;20187;-74
2023/04/30 03:11:09;;;;;;;25.07;22.10;;;;;;;;;;5016932;28;20566;-75
2023/04/30 03:13:35;;;;;;;13.77;12.27;;;;;;;;;;5031734;28;20676;-75
2023/04/30 03:16:05;;;;;;;13.87;11.13;;;;;;;;;;5031509;28;20210;-74
2023/04/30 03:18:32;;;;;;;12.73;11.23;;;;;;;;;;5032436;28;20197;-75
2023/04/30 03:20:58;;;;;;;12.20;10.27;;;;;;;;;;5032096;28;20229;-74
2023/04/30 03:23:26;;;;;;;11.67;10.47;;;;;;;;;;5031742;28;20195;-75
2023/04/30 03:25:52;;;;;;;13.00;11.57;;;;;;;;;;5022355;28;20203;-75
2023/04/30 03:28:18;;;;;;;12.10;10.73;;;;;;;;;;5031716;28;20669;-74
2023/04/30 03:30:44;;;;;;;12.13;10.53;;;;;;;;;;5021658;28;20270;-75
2023/04/30 03:33:11;;;;;;;13.73;11.07;;;;;;;;;;5021533;28;20598;-74
2023/04/30 03:35:37;;;;;;;12.43;11.17;;;;;;;;;;5043571;28;20189;-75
2023/04/30 03:38:03;;;;;;;13.63;12.27;;;;;;;;;;5032033;28;20185;-74
2023/04/30 03:40:29;;;;;;;17.00;14.77;;;;;;;;;;5028202;28;20218;-74
2023/04/30 03:42:56;;;;;;;16.53;14.37;;;;;;;;;;5029779;28;20228;-75
2023/04/30 03:45:22;;;;;;;15.90;12.63;;;;;;;;;;5032693;28;20179;-75
2023/04/30 03:47:48;;;;;;;17.83;14.73;;;;;;;;;;5027228;28;20205;-75
2023/04/30 03:50:15;;;;;;;17.07;14.77;;;;;;;;;;5029932;28;20301;-75
2023/04/30 03:52:41;;;;;;;20.47;16.63;;;;;;;;;;5019173;28;20268;-74
2023/04/30 03:55:09;;;;;;;17.97;16.03;;;;;;;;;;5024730;28;20202;-74
2023/04/30 03:57:35;;;;;;;13.53;12.10;;;;;;;;;;5032328;28;20214;-74
2023/04/30 04:00:06;;;;;;;12.10;10.90;;;;;;;;;;5025412;28;20203;-75
2023/04/30 04:02:39;;;;;;;13.63;11.60;;;;;;;;;;5031854;28;20178;-75
2023/04/30 04:05:08;;;;;;;14.03;11.43;;;;;;;;;;5027682;28;20955;-74
2023/04/30 04:07:34;;;;;;;11.40;10.30;;;;;;;;;;5011733;28;20285;-75
2023/04/30 04:10:00;;;;;;;12.20;11.00;;;;;;;;;;5027737;28;22012;-74
2023/04/30 04:12:29;;;;;;;12.33;11.03;;;;;;;;;;5030833;28;20221;-75
2023/04/30 04:14:55;;;;;;;13.47;10.80;;;;;;;;;;5031436;28;20178;-74
2023/04/30 04:17:22;;;;;;;12.40;11.10;;;;;;;;;;5008520;28;20211;-74
2023/04/30 04:19:48;;;;;;;12.30;10.70;;;;;;;;;;5013940;28;20733;-74
2023/04/30 04:22:16;;;;;;;11.90;10.77;;;;;;;;;;5022585;28;20241;-74
2023/04/30 04:24:43;;;;;;;11.70;10.13;;;;;;;;;;5046823;28;20269;-75
2023/04/30 04:27:11;;;;;;;15.60;11.63;;;;;;;;;;5012331;28;20270;-75
2023/04/30 04:29:37;;;;;;;11.57;10.47;;;;;;;;;;5015227;28;20191;-75
2023/04/30 04:32:04;;;;;;;13.07;11.70;;;;;;;;;;5014523;28;20553;-74
2023/04/30 04:34:32;;;;;;;15.73;12.20;;;;;;;;;;5029955;28;20244;-75
2023/04/30 04:36:58;;;;;;;13.87;12.23;;;;;;;;;;5030556;28;20281;-75
2023/04/30 04:39:24;;;;;;;12.87;11.57;;;;;;;;;;5026347;28;20216;-75
2023/04/30 04:41:51;;;;;;;13.53;10.80;;;;;;;;;;5030674;28;20189;-75
2023/04/30 04:44:17;;;;;;;11.97;9.57;;;;;;;;;;5030334;28;20170;-75
2023/04/30 04:46:44;;;;;;;13.43;10.47;;;;;;;;;;5023247;28;20848;-75
2023/04/30 04:49:11;;;;;;;14.83;11.47;;;;;;;;;;5043943;28;20187;-74
2023/04/30 04:51:38;;;;;;;11.83;10.37;;;;;;;;;;5023873;28;20506;-75
2023/04/30 04:54:05;;;;;;;12.90;10.60;;;;;;;;;;5005945;28;20208;-74
2023/04/30 04:56:32;;;;;;;12.77;10.70;;;;;;;;;;5030158;28;20232;-75
2023/04/30 04:58:59;;;;;;;10.77;9.67;;;;;;;;;;5011923;28;20294;-74
2023/04/30 05:01:25;;;;;;;11.33;10.13;;;;;;;;;;5021272;28;20184;-75
2023/04/30 05:03:53;;;;;;;12.20;10.07;;;;;;;;;;5043669;28;20182;-75
2023/04/30 05:06:19;;;;;;;11.90;10.70;;;;;;;;;;4995645;28;20199;-74
2023/04/30 05:08:45;;;;;;;11.80;9.70;;;;;;;;;;5024200;28;20182;-74
2023/04/30 05:11:11;;;;;;;10.90;9.80;;;;;;;;;;5009011;28;20389;-74
2023/04/30 05:13:37;;;;;;;13.27;11.10;;;;;;;;;;5001384;28;20186;-74
2023/04/30 05:16:04;;;;;;;13.63;10.70;;;;;;;;;;5015863;28;20575;-75
2023/04/30 05:18:30;;;;;;;11.87;10.23;;;;;;;;;;5024194;28;20179;-75
2023/04/30 05:20:56;;;;;;;12.37;10.30;;;;;;;;;;5022740;28;20602;-75
2023/04/30 05:23:22;;;;;;;13.30;10.20;;;;;;;;;;5011507;28;20203;-75
2023/04/30 05:25:52;;;;;;;11.63;10.43;;;;;;;;;;5012997;28;20226;-75
2023/04/30 05:28:18;;;;;;;11.87;10.33;;;;;;;;;;5028396;28;20244;-74
2023/04/30 05:30:45;;;;;;;11.00;9.80;;;;;;;;;;5030965;28;20182;-74
2023/04/30 05:33:11;;;;;;;13.97;10.63;;;;;;;;;;5030805;28;20174;-74
2023/04/30 05:35:37;;;;;;;13.43;10.90;;;;;;;;;;5024539;28;20187;-74
2023/04/30 05:38:03;;;;;;;14.60;11.83;;;;;;;;;;5010038;28;20183;-74
2023/04/30 05:40:30;;;;;;;11.77;10.53;;;;;;;;;;5020372;28;20217;-75
2023/04/30 05:42:56;;;;;;;11.60;10.27;;;;;;;;;;5036376;28;20177;-75
2023/04/30 05:45:22;;;;;;;12.13;10.83;;;;;;;;;;5031564;28;20673;-74
2023/04/30 05:47:48;;;;;;;11.93;10.30;;;;;;;;;;5029882;28;20209;-75
2023/04/30 05:50:14;;;;;;;11.50;10.17;;;;;;;;;;5032363;28;20175;-75
2023/04/30 05:52:40;;;;;;;13.57;10.13;;;;;;;;;;5034226;28;20191;-75
2023/04/30 05:55:07;;;;;;;13.13;10.90;;;;;;;;;;5024846;28;20568;-75
2023/04/30 05:57:34;;;;;;;11.10;9.93;;;;;;;;;;5027726;28;20206;-75
2023/04/30 06:00:00;;;;;;;14.20;11.23;;;;;;;;;;5034959;28;20210;-74
2023/04/30 06:02:26;;;;;;;11.03;9.83;;;;;;;;;;5034868;28;20661;-74
2023/04/30 06:04:52;;;;;;;10.63;9.53;;;;;;;;;;5034435;28;20182;-75
2023/04/30 06:07:19;;;;;;;11.77;10.50;;;;;;;;;;5034599;28;20205;-75
2023/04/30 06:09:45;;;;;;;11.73;9.77;;;;;;;;;;5031480;28;20658;-74
2023/04/30 06:12:11;;;;;;;10.67;9.53;;;;;;;;;;5034233;28;20733;-74
2023/04/30 06:14:38;;;;;;;10.20;9.00;;;;;;;;;;5023304;28;20183;-74
2023/04/30 06:17:04;;;;;;;12.87;9.97;;;;;;;;;;5024295;28;20241;-74
2023/04/30 06:19:31;;;;;;;10.93;9.43;;;;;;;;;;5018694;28;20218;-74
2023/04/30 06:21:57;;;;;;;10.77;8.97;;;;;;;;;;5019176;28;20176;-74
2023/04/30 06:24:26;;;;;;;12.20;9.67;;;;;;;;;;5026513;28;20211;-74
2023/04/30 06:26:52;;;;;;;9.47;8.57;;;;;;;;;;5013541;28;20266;-77
2023/04/30 06:29:18;;;;;;;10.60;9.50;;;;;;;;;;5021787;28;20187;-77
2023/04/30 06:31:44;;;;;;;9.87;8.87;;;;;;;;;;5023741;28;20174;-76
2023/04/30 06:34:11;;;;;;;12.70;10.20;;;;;;;;;;5022243;28;20654;-76
2023/04/30 06:36:37;;;;;;;12.30;9.50;;;;;;;;;;5006972;28;20635;-76
2023/04/30 06:39:04;;;;;;;10.10;9.00;;;;;;;;;;5030747;28;20232;-77
2023/04/30 06:41:30;;;;;;;11.30;9.77;;;;;;;;;;5034303;28;20646;-77
2023/04/30 06:43:56;;;;;;;10.70;9.53;;;;;;;;;;5027222;28;20182;-76
2023/04/30 06:46:22;;;;;;;16.10;14.40;;;;;;;;;;5027827;28;20237;-77
2023/04/30 06:48:48;;;;;;;11.17;9.60;;;;;;;;;;5032505;28;20175;-77
2023/04/30 06:51:14;;;;;;;10.00;8.10;;;;;;;;;;5032174;28;20179;-77
2023/04/30 06:53:41;;;;;;;10.43;8.30;;;;;;;;;;5022158;28;20293;-77
2023/04/30 06:56:07;;;;;;;9.03;8.07;;;;;;;;;;5031878;28;20223;-77
2023/04/30 06:58:33;;;;;;;11.03;8.87;;;;;;;;;;5032019;28;20182;-77
2023/04/30 07:01:00;;;;;;;9.33;8.03;;;;;;;;;;5032414;28;20183;-77
2023/04/30 07:03:26;;;;;;;9.50;8.50;;;;;;;;;;5030761;28;20266;-77
2023/04/30 07:05:53;;;;;;;9.90;8.80;;;;;;;;;;5030379;28;20229;-77
2023/04/30 07:08:19;;;;;;;10.33;7.67;;;;;;;;;;5032717;28;20178;-77
2023/04/30 07:10:45;;;;;;;9.57;7.70;;;;;;;;;;5027124;28;20244;-77
2023/04/30 07:13:11;;;;;;;8.63;7.40;;;;;;;;;;5032084;28;20667;-77
2023/04/30 07:15:37;;;;;;;10.73;7.13;;;;;;;;;;5033482;28;20178;-77
2023/04/30 07:18:03;;;;;;;11.03;7.60;;;;;;;;;;5033512;28;20275;-77
2023/04/30 07:20:29;;;;;;;8.23;7.43;;;;;;;;;;5022112;28;20746;-77
2023/04/30 07:22:56;;;;;;;7.87;6.97;;;;;;;;;;5027347;28;20182;-77
2023/04/30 07:25:22;;;;;;;7.63;6.83;;;;;;;;;;5027525;28;20182;-77
2023/04/30 07:27:48;;;;;;;8.07;7.27;;;;;;;;;;5033259;28;20212;-77
2023/04/30 07:30:14;;;;;;;12.00;7.93;;;;;;;;;;5033317;28;20676;-77
2023/04/30 07:32:40;;;;;;;7.77;6.77;;;;;;;;;;5033207;28;20187;-77
2023/04/30 07:35:06;;;;;;;10.17;6.70;;;;;;;;;;5026703;28;20201;-76
2023/04/30 07:37:32;;;;;;;9.63;7.17;;;;;;;;;;5031445;28;20266;-77
2023/04/30 07:39:59;;;;;;;7.70;6.73;;;;;;;;;;5033031;28;20206;-77
2023/04/30 07:42:25;;;;;;;8.07;6.40;;;;;;;;;;5028016;28;20660;-79
2023/04/30 07:44:52;;;;;;;8.27;6.67;;;;;;;;;;5024720;28;20384;-76
2023/04/30 07:47:18;;;;;;;7.70;6.70;;;;;;;;;;5014224;28;20517;-76
2023/04/30 07:49:46;;;;;;;11.47;6.07;;;;;;;;;;5013608;28;20670;-77
2023/04/30 07:52:12;;;;;;;8.23;5.80;;;;;;;;;;5013877;28;20183;-78
2023/04/30 07:54:38;;;;;;;8.27;6.40;;;;;;;;;;5031070;28;20193;-75
2023/04/30 07:57:05;;;;;;;9.23;6.43;;;;;;;;;;5031855;28;20241;-75
2023/04/30 07:59:31;;;;;;;7.03;5.50;;;;;;;;;;5008932;28;20212;-75
2023/04/30 08:01:57;;;;;;;7.53;6.07;;;;;;;;;;5012614;28;20179;-76
2023/04/30 08:04:24;;;;;;;7.07;5.10;;;;;;;;;;5029348;28;20174;-74
2023/04/30 08:06:50;;;;;;;6.93;5.53;;;;;;;;;;5013592;28;20555;-75
2023/04/30 08:09:16;;;;;;;6.93;5.30;;;;;;;;;;5028509;28;20231;-74
2023/04/30 08:11:42;;;;;;;7.27;5.63;;;;;;;;;;5027495;28;20195;-74
2023/04/30 08:14:09;;;;;;;5.83;5.20;;;;;;;;;;5026055;28;20197;-74
2023/04/30 08:16:35;;;;;;;6.43;4.60;;;;;;;;;;5026266;28;20212;-74
2023/04/30 08:19:01;;;;;;;6.53;5.00;;;;;;;;;;5025929;28;20214;-74
2023/04/30 08:21:27;;;;;;;7.70;6.90;;;;;;;;;;5021024;28;20184;-74
2023/04/30 08:23:54;;;;;;;6.33;5.63;;;;;;;;;;5019394;28;20704;-74
2023/04/30 08:26:20;;;;;;;5.87;5.27;;;;;;;;;;5022397;28;20226;-74
2023/04/30 08:28:47;;;;;;;6.93;4.97;;;;;;;;;;5027686;28;20184;-74
2023/04/30 08:31:13;;;;;;;4.97;4.47;;;;;;;;;;5028506;28;20159;-74
2023/04/30 08:33:40;;;;;;;8.07;5.00;;;;;;;;;;5020670;28;20265;-74
2023/04/30 08:36:06;;;;;;;5.10;4.60;;;;;;;;;;5014040;28;20199;-74
2023/04/30 08:38:32;;;;;;;5.23;4.50;;;;;;;;;;5021266;28;20731;-74
2023/04/30 08:41:12;;;;;;;5.47;4.93;;;;;;;;;;5028980;28;20184;-74
2023/04/30 08:43:39;;;;;;;6.77;5.23;;;;;;;;;;5023496;28;20286;-74
2023/04/30 08:46:05;;;;;;;6.23;4.67;;;;;;;;;;5028269;28;20206;-74
2023/04/30 08:48:32;;;;;;;5.23;4.37;;;;;;;;;;5026452;28;20183;-75
2023/04/30 08:51:00;;;;;;;7.03;4.60;;;;;;;;;;5032827;28;20180;-74
2023/04/30 08:53:26;;;;;;;6.00;4.60;;;;;;;;;;5032248;28;20190;-74
2023/04/30 08:55:52;;;;;;;5.03;4.53;;;;;;;;;;5019369;28;20212;-74
2023/04/30 08:58:18;;;;;;;6.60;4.47;;;;;;;;;;5025759;28;20187;-74
2023/04/30 09:00:46;;;;;;;5.63;4.80;;;;;;;;;;5024916;28;20866;-74
2023/04/30 09:03:12;;;;;;;7.63;4.70;;;;;;;;;;5016638;28;20171;-74
2023/04/30 09:05:38;;;;;;;6.03;4.17;;;;;;;;;;5024516;28;20654;-74
2023/04/30 09:08:06;;;;;;;9.03;4.30;;;;;;;;;;5028233;28;20594;-73
2023/04/30 09:10:33;;;;;;;6.10;4.00;;;;;;;;;;5031777;28;20183;-74
2023/04/30 09:13:00;;;;;;;4.03;3.23;;;;;;;;;;5023837;28;20184;-75
2023/04/30 09:15:27;;;;;;;4.83;3.50;;;;;;;;;;5035825;28;20190;-76
2023/04/30 09:18:13;;;;;;;5.20;3.83;;;;;;;;;;5036043;28;20201;-76
2023/04/30 09:20:53;;;;;;;4.50;3.50;;;;;;;;;;5022113;28;20215;-75
2023/04/30 09:23:19;;;;;;;4.30;3.47;;;;;;;;;;5028505;28;20220;-76
2023/04/30 09:25:45;;;;;;;5.37;3.77;;;;;;;;;;5031618;28;20260;-75
2023/04/30 09:28:12;;;;;;;4.37;3.40;;;;;;;;;;5029996;28;20182;-75
2023/04/30 09:30:39;;;;;;;3.67;3.17;;;;;;;;;;5020339;28;20948;-75
2023/04/30 09:33:05;;;;;;;5.43;3.83;;;;;;;;;;5023392;28;20193;-75
2023/04/30 09:35:33;;;;;;;5.27;3.20;;;;;;;;;;5024988;28;20217;-75
2023/04/30 09:38:01;;;;;;;3.30;2.90;;;;;;;;;;5024166;28;20615;-76
2023/04/30 09:40:37;;;;;;;3.40;2.77;;;;;;;;;;5030816;28;20237;-76
2023/04/30 09:43:04;;;;;;;3.40;2.83;;;;;;;;;;5028742;28;20187;-75
2023/04/30 09:45:43;;;;;;;3.37;2.80;;;;;;;;;;5029063;28;20677;-76
2023/04/30 09:48:10;;;;;;;4.83;3.37;;;;;;;;;;5026735;28;20205;-76
2023/04/30 09:50:38;;;;;;;3.43;3.10;;;;;;;;;;5029504;28;20717;-76
2023/04/30 09:53:05;;;;;;;3.50;3.20;;;;;;;;;;5032669;28;20193;-76
2023/04/30 09:55:32;;;;;;;3.47;3.10;;;;;;;;;;5029776;28;20202;-76
2023/04/30 09:57:59;;;;;;;9.53;6.90;;;;;;;;;;5027077;28;20182;-76
2023/04/30 10:00:26;;;;;;;8.33;3.77;;;;;;;;;;5020653;28;20575;-76
2023/04/30 10:02:53;;;;;;;4.50;3.33;;;;;;;;;;5023391;28;20244;-76
2023/04/30 10:05:19;;;;;;;4.03;3.23;;;;;;;;;;5035866;28;20639;-76
2023/04/30 10:07:45;;;;;;;4.07;2.77;;;;;;;;;;5028502;28;20195;-76
2023/04/30 10:10:12;;;;;;;3.87;3.40;;;;;;;;;;5028335;28;20182;-76
2023/04/30 10:12:49;;;;;;;4.03;2.83;;;;;;;;;;5025828;28;20187;-76
2023/04/30 10:15:25;;;;;;;5.10;3.47;;;;;;;;;;5028261;28;20205;-76
2023/04/30 10:18:02;;;;;;;4.00;3.40;;;;;;;;;;5029229;28;20671;-76
2023/04/30 10:20:30;;;;;;;3.33;2.80;;;;;;;;;;5027839;28;20206;-76
2023/04/30 10:22:56;;;;;;;3.73;2.90;;;;;;;;;;5029762;28;20178;-76
2023/04/30 10:25:24;;;;;;;5.07;4.00;;;;;;;;;;5029638;28;20258;-76
2023/04/30 10:27:51;;;;;;;3.57;3.20;;;;;;;;;;5026908;28;20206;-76
2023/04/30 10:30:17;;;;;;;4.23;3.00;;;;;;;;;;5030511;28;20163;-76
2023/04/30 10:32:48;;;;;;;3.67;2.87;;;;;;;;;;5028290;28;20182;-76
2023/04/30 10:35:18;;;;;;;4.00;2.87;;;;;;;;;;5009879;28;20218;-76
2023/04/30 10:37:54;;;;;;;3.40;2.80;;;;;;;;;;5028407;28;20660;-76
2023/04/30 10:40:20;;;;;;;3.00;2.50;;;;;;;;;;5031479;28;21701;-76
2023/04/30 10:42:50;;;;;;;2.90;2.60;;;;;;;;;;5033035;28;20190;-76
2023/04/30 10:45:16;;;;;;;3.13;2.37;;;;;;;;;;5030658;28;20537;-76
2023/04/30 10:47:46;;;;;;;3.50;3.10;;;;;;;;;;5032932;28;20281;-76
2023/04/30 10:50:13;;;;;;;3.53;2.80;;;;;;;;;;5032578;28;20190;-76
2023/04/30 10:52:39;;;;;;;5.27;2.80;;;;;;;;;;5032100;28;20269;-76
2023/04/30 10:55:06;;;;;;;2.90;2.60;;;;;;;;;;5031610;28;20678;-76
2023/04/30 10:57:39;;;;;;;2.67;2.47;;;;;;;;;;5032590;28;20213;-76
2023/04/30 11:00:13;;;;;;;2.67;2.07;;;;;;;;;;5031473;28;20215;-74
2023/04/30 11:02:40;;;;;;;4.23;2.20;;;;;;;;;;5032519;28;20186;-73
2023/04/30 11:05:06;;;;;;;5.00;4.10;;;;;;;;;;5033523;28;20182;-73
2023/04/30 11:07:33;;;;;;;5.53;2.80;;;;;;;;;;5030908;28;20209;-74
2023/04/30 11:10:01;;;;;;;3.67;2.50;;;;;;;;;;5027789;28;20182;-74
2023/04/30 11:12:28;;;;;;;3.93;2.43;;;;;;;;;;5030711;28;20285;-76
2023/04/30 11:15:01;;;;;;;3.43;2.83;;;;;;;;;;5033015;28;20189;-75
2023/04/30 11:17:28;;;;;;;3.73;2.50;;;;;;;;;;5030451;28;20206;-74
2023/04/30 11:19:59;;;;;;;3.30;2.50;;;;;;;;;;5032383;28;20206;-74
2023/04/30 11:22:26;;;;;;;5.63;4.13;;;;;;;;;;5028165;28;20618;-74
2023/04/30 11:24:58;;;;;;;3.80;2.27;;;;;;;;;;5026525;28;20236;-74
2023/04/30 11:27:29;;;;;;;4.73;3.40;;;;;;;;;;5031200;28;20194;-75
2023/04/30 11:29:55;;;;;;;3.47;2.77;;;;;;;;;;5028029;28;20194;-75
2023/04/30 11:32:22;;;;;;;2.20;2.00;;;;;;;;;;5031309;28;20261;-75
2023/04/30 11:34:49;;;;;;;4.57;3.47;;;;;;;;;;5031764;28;20813;-75
2023/04/30 11:37:19;;;;;;;4.07;2.90;;;;;;;;;;5029971;28;20268;-75
2023/04/30 11:39:47;;;;;;;5.83;3.27;;;;;;;;;;5025638;28;20292;-76
2023/04/30 11:42:19;;;;;;;2.03;1.93;;;;;;;;;;5024579;28;20233;-75
2023/04/30 11:44:45;;;;;;;2.50;2.30;;;;;;;;;;5031074;28;20262;-75
2023/04/30 11:47:15;;;;;;;3.50;2.00;;;;;;;;;;5026141;28;20233;-75
2023/04/30 11:49:42;;;;;;;3.37;2.07;;;;;;;;;;5026732;28;20561;-75
2023/04/30 11:52:08;;;;;;;3.33;2.43;;;;;;;;;;5030190;28;20294;-73
2023/04/30 11:54:38;;;;;;;3.27;2.27;;;;;;;;;;5030281;28;20227;-73
2023/04/30 11:57:04;;;;;;;3.40;2.13;;;;;;;;;;5029314;28;20731;-74
2023/04/30 11:59:31;;;;;;;2.57;2.17;;;;;;;;;;5028225;28;20272;-75
2023/04/30 12:01:57;;;;;;;3.60;2.10;;;;;;;;;;5029835;28;20548;-77
2023/04/30 12:04:24;;;;;;;5.60;3.80;;;;;;;;;;5027885;28;20559;-75
2023/04/30 12:06:50;;;;;;;2.50;2.30;;;;;;;;;;5032642;28;20209;-73
2023/04/30 12:09:17;;;;;;;3.50;2.00;;;;;;;;;;5036520;28;20266;-75
2023/04/30 12:11:44;;;;;;;2.53;2.00;;;;;;;;;;5011090;28;20274;-76
2023/04/30 12:14:11;;;;;;;4.30;2.10;;;;;;;;;;5028733;28;20197;-77
2023/04/30 12:16:39;;;;;;;2.00;1.80;;;;;;;;;;5032780;28;20256;-78
2023/04/30 12:19:06;;;;;;;3.17;2.00;;;;;;;;;;5031263;28;20219;-78
2023/04/30 12:21:33;;;;;;;2.33;1.80;;;;;;;;;;5028507;28;20185;-77
2023/04/30 12:24:01;;;;;;;2.30;2.10;;;;;;;;;;5027708;28;20189;-78
2023/04/30 12:26:34;;;;;;;2.47;2.00;;;;;;;;;;5021519;28;20682;-79
2023/04/30 12:29:03;;;;;;;2.67;2.10;;;;;;;;;;5029109;28;20210;-78
2023/04/30 12:31:31;;;;;;;3.03;1.90;;;;;;;;;;5032846;28;20186;-75
2023/04/30 12:33:57;;;;;;;4.20;2.20;;;;;;;;;;5030533;28;20258;-75
2023/04/30 12:36:30;;;;;;;1.70;1.60;;;;;;;;;;5025686;28;20691;-75
2023/04/30 12:39:06;;;;;;;2.20;2.00;;;;;;;;;;5031450;28;20185;-76
2023/04/30 12:41:35;;;;;;;2.20;2.00;;;;;;;;;;5027042;28;20230;-79
2023/04/30 12:44:21;;;;;;;2.37;1.60;;;;;;;;;;5029075;28;20183;-75
2023/04/30 12:46:48;;;;;;;2.00;1.60;;;;;;;;;;5018593;28;20222;-76
2023/04/30 12:49:24;;;;;;;2.03;1.83;;;;;;;;;;5020919;28;20196;-76
2023/04/30 12:51:50;;;;;;;1.60;1.50;;;;;;;;;;5030510;28;20567;-76
2023/04/30 12:54:29;;;;;;;1.97;1.70;;;;;;;;;;5027985;28;20204;-76
2023/04/30 12:57:06;;;;;;;2.43;1.63;;;;;;;;;;5012455;28;20234;-78
2023/04/30 12:59:33;;;;;;;2.77;1.77;;;;;;;;;;5019560;28;20272;-77
2023/04/30 13:02:12;;;;;;;4.83;2.07;;;;;;;;;;5021769;28;20188;-78
2023/04/30 13:04:39;;;;;;;3.77;2.00;;;;;;;;;;5022527;28;20700;-78
2023/04/30 13:07:06;;;;;;;2.17;1.70;;;;;;;;;;5017270;28;20267;-78
2023/04/30 13:09:36;;;;;;;1.93;1.67;;;;;;;;;;5026230;28;20301;-78
2023/04/30 13:12:03;;;;;;;4.33;3.27;;;;;;;;;;5017190;28;20300;-80
2023/04/30 13:14:30;;;;;;;2.30;1.87;;;;;;;;;;5015633;28;20197;-80
2023/04/30 13:16:57;;;;;;;1.67;1.50;;;;;;;;;;5020913;28;20243;-80
2023/04/30 13:19:23;;;;;;;2.20;1.73;;;;;;;;;;5025050;28;20754;-79
2023/04/30 13:21:49;;;;;;;1.70;1.60;;;;;;;;;;5022569;28;20182;-80
2023/04/30 13:24:16;;;;;;;2.23;1.60;;;;;;;;;;5018937;28;20180;-80
2023/04/30 13:26:42;;;;;;;2.40;1.90;;;;;;;;;;5008827;28;20205;-79
2023/04/30 13:29:09;;;;;;;2.40;2.20;;;;;;;;;;5028711;28;20194;-80
2023/04/30 13:31:35;;;;;;;3.17;2.07;;;;;;;;;;5030171;28;20325;-80
2023/04/30 13:34:02;;;;;;;2.93;1.70;;;;;;;;;;5029672;28;20195;-79
2023/04/30 13:36:28;;;;;;;1.87;1.70;;;;;;;;;;5031252;28;20746;-79
2023/04/30 13:38:54;;;;;;;1.57;1.47;;;;;;;;;;5029957;28;20199;-79
2023/04/30 13:41:21;;;;;;;1.53;1.43;;;;;;;;;;5037470;28;20694;-80
2023/04/30 13:43:48;;;;;;;2.27;1.40;;;;;;;;;;5033556;28;20188;-80
2023/04/30 13:46:14;;;;;;;1.70;1.50;;;;;;;;;;5034385;28;20205;-80
2023/04/30 13:48:41;;;;;;;2.03;1.50;;;;;;;;;;5033088;28;20177;-80
2023/04/30 13:51:07;;;;;;;1.50;1.40;;;;;;;;;;5031996;28;20626;-80
2023/04/30 13:53:35;;;;;;;2.27;1.40;;;;;;;;;;5028713;28;20186;-80
2023/04/30 13:56:02;;;;;;;2.50;1.73;;;;;;;;;;5032573;28;20222;-80
2023/04/30 13:58:28;;;;;;;4.50;1.60;;;;;;;;;;5028788;28;20213;-77
2023/04/30 14:00:55;;;;;;;2.30;1.50;;;;;;;;;;5025065;28;20216;-76
2023/04/30 14:03:21;;;;;;;2.50;1.30;;;;;;;;;;5020717;28;20190;-75
2023/04/30 14:05:47;;;;;;;1.83;1.70;;;;;;;;;;5021145;28;20185;-76
2023/04/30 14:08:13;;;;;;;1.60;1.37;;;;;;;;;;5018720;28;20223;-76
2023/04/30 14:10:40;;;;;;;1.40;1.30;;;;;;;;;;5013972;28;20263;-76
2023/04/30 14:13:06;;;;;;;1.63;1.53;;;;;;;;;;5020304;28;20201;-76
2023/04/30 14:15:32;;;;;;;2.40;1.73;;;;;;;;;;5026647;28;20190;-75
2023/04/30 14:17:59;;;;;;;1.93;1.77;;;;;;;;;;5020509;28;20292;-75
2023/04/30 14:20:25;;;;;;;2.13;1.73;;;;;;;;;;5023189;28;20805;-75
2023/04/30 14:22:51;;;;;;;2.17;1.50;;;;;;;;;;5032208;28;20218;-75
2023/04/30 14:25:18;;;;;;;1.53;1.33;;;;;;;;;;5023289;28;20184;-75
2023/04/30 14:27:44;;;;;;;1.40;1.30;;;;;;;;;;5034108;28;20231;-76
2023/04/30 14:30:10;;;;;;;1.73;1.40;;;;;;;;;;5023006;28;20222;-77
2023/04/30 14:32:36;;;;;;;2.17;1.60;;;;;;;;;;5024060;28;20206;-76
2023/04/30 14:35:03;;;;;;;3.70;1.87;;;;;;;;;;5035526;28;20252;-76